createdAt,value
2022-10-05T00:15:29.849Z,12.6
2022-10-05T00:35:29.911Z,12.82
2022-10-05T00:55:29.847Z,12.91
2022-10-05T01:15:29.845Z,12.83
2022-10-05T01:35:29.825Z,12.91
2022-10-05T02:15:29.966Z,12.95
2022-10-05T02:35:29.810Z,12.91
2022-10-05T02:55:29.806Z,12.88
2022-10-05T03:15:29.792Z,13.04
2022-10-05T03:35:29.851Z,12.97
2022-10-05T03:55:29.804Z,12.93
2022-10-05T04:15:29.779Z,12.91
2022-10-05T05:35:29.768Z,13.12
2022-10-05T05:55:30.285Z,13.26
2022-10-05T06:15:29.751Z,13.36
2022-10-05T06:35:29.739Z,13.74
2022-10-05T06:55:29.748Z,14.35
2022-10-05T07:35:29.723Z,15.05
2022-10-05T07:55:29.762Z,15.19
2022-10-05T08:15:29.712Z,15.25
2022-10-05T08:35:29.710Z,15.41
2022-10-05T08:55:29.728Z,15.66
2022-10-05T09:15:29.739Z,15.89
2022-10-05T09:55:29.677Z,16.4
2022-10-05T10:15:29.794Z,16.64
2022-10-05T10:55:29.656Z,16.95
2022-10-05T11:15:29.648Z,17.21
2022-10-05T11:35:29.631Z,17.62
2022-10-05T11:55:29.643Z,18.01
2022-10-05T12:15:29.617Z,18.3
2022-10-05T12:55:29.610Z,19.06
2022-10-05T13:15:29.599Z,19.62
2022-10-05T13:55:29.581Z,20.41
2022-10-05T17:15:29.642Z,19.48
2022-10-05T17:35:29.483Z,19.35
2022-10-05T17:55:29.472Z,18.77
2022-10-05T18:15:29.490Z,18.48
2022-10-05T18:35:29.454Z,18.34
2022-10-05T18:55:29.444Z,18.27
2022-10-05T19:55:29.422Z,18.49
2022-10-05T20:15:29.418Z,18.69
2022-10-05T21:35:29.373Z,18.75
2022-10-05T22:15:29.363Z,17.14
2022-10-05T22:35:29.359Z,16.33
2022-10-05T22:55:29.342Z,16.17
2022-10-05T23:55:29.323Z,14.57
